Time;durP1;ratioP1;P1;durP2;ratioP2;P2;SDS_P1;SDS_P2;PMS_P1;PMS_P2;Temp;Humidity;BMP_temperature;BMP_pressure;BME280_temperature;BME280_humidity;BME280_pressure;Samples;Min_cycle;Max_cycle;Signal;HPM_P1;HPM_P2
2022/02/05 08:43:11;;;;;;;16.63;9.40;;;;;;;3.01;100.00;101326.56;5014933;23;20124;-89
2022/02/05 08:45:38;;;;;;;14.77;6.93;;;;;;;3.03;100.00;101338.75;5009672;28;20066;-89
2022/02/05 08:48:04;;;;;;;16.27;6.80;;;;;;;3.11;100.00;101335.63;4924064;28;20308;-89
2022/02/05 08:50:30;;;;;;;16.30;8.65;;;;;;;3.18;100.00;101336.88;4964636;28;20085;-90
2022/02/05 08:52:55;;;;;;;19.83;7.45;;;;;;;3.22;100.00;101324.25;4958304;28;20049;-89
2022/02/05 08:55:22;;;;;;;14.07;7.05;;;;;;;3.24;100.00;101344.44;4953016;28;20047;-89
2022/02/05 08:57:49;;;;;;;17.73;7.28;;;;;;;3.28;100.00;101343.28;4923731;28;20532;-88
2022/02/05 09:00:22;;;;;;;18.20;7.88;;;;;;;3.34;100.00;101332.25;4950533;28;20054;-89
2022/02/05 09:02:55;;;;;;;14.60;7.63;;;;;;;3.37;100.00;101342.66;4947452;28;20756;-89
2022/02/05 09:07:57;;;;;;;11.43;6.93;;;;;;;3.44;100.00;101358.16;4932116;28;20064;-89
2022/02/05 09:10:38;;;;;;;19.15;7.30;;;;;;;3.46;100.00;101361.56;4930493;29;20044;-89
2022/02/05 09:13:24;;;;;;;16.88;6.43;;;;;;;3.49;100.00;101340.13;4946905;28;20055;-89
2022/02/05 09:15:49;;;;;;;16.48;6.85;;;;;;;3.51;100.00;101359.41;4941625;28;20051;-89
2022/02/05 09:18:15;;;;;;;16.67;7.25;;;;;;;3.55;100.00;101372.38;4930733;28;20051;-89
2022/02/05 09:20:41;;;;;;;13.02;7.07;;;;;;;3.56;100.00;101370.56;4933920;29;20039;-89
2022/02/05 09:23:06;;;;;;;12.60;6.00;;;;;;;3.56;100.00;101370.56;4926979;28;20040;-89
2022/02/05 09:25:35;;;;;;;11.75;6.82;;;;;;;3.63;100.00;101374.53;4929939;28;20205;-89
2022/02/05 09:28:00;;;;;;;10.90;5.65;;;;;;;3.67;100.00;101364.53;4939868;28;20044;-88
2022/02/05 09:30:42;;;;;;;14.25;6.45;;;;;;;3.73;100.00;101385.34;4981361;28;20109;-89
2022/02/05 09:33:07;;;;;;;11.82;6.53;;;;;;;3.78;100.00;101378.75;4954421;28;20105;-88
2022/02/05 09:35:33;;;;;;;16.85;6.22;;;;;;;3.78;100.00;101380.59;4933261;28;20048;-89
2022/02/05 09:37:58;;;;;;;14.02;6.05;;;;;;;3.84;100.00;101373.03;4932106;29;20055;-88
2022/02/05 09:40:24;;;;;;;10.25;5.75;;;;;;;3.90;100.00;101377.06;4913394;29;20098;-88
2022/02/05 09:42:50;;;;;;;10.95;5.80;;;;;;;3.90;100.00;101386.84;4930785;29;20054;-88
2022/02/05 09:45:16;;;;;;;13.50;5.53;;;;;;;3.90;100.00;101382.38;4914477;29;20083;-87
2022/02/05 09:47:42;;;;;;;11.70;5.70;;;;;;;3.87;100.00;101424.22;4931209;29;20047;-88
2022/02/05 09:50:08;;;;;;;10.48;5.30;;;;;;;3.86;100.00;101374.75;4942157;29;20047;-88
2022/02/05 09:52:33;;;;;;;12.90;6.18;;;;;;;3.96;100.00;101397.03;4923928;29;20046;-88
2022/02/05 09:55:02;;;;;;;12.25;5.80;;;;;;;3.99;100.00;101391.50;4910973;29;20051;-89
2022/02/05 09:57:28;;;;;;;10.70;6.00;;;;;;;3.98;100.00;101387.16;4849681;29;20053;-89
2022/02/05 09:59:58;;;;;;;12.20;6.38;;;;;;;4.01;100.00;101390.44;4871046;29;20047;-88
2022/02/05 10:02:27;;;;;;;12.70;5.40;;;;;;;4.02;100.00;101385.97;4856663;29;20511;-87
2022/02/05 10:05:16;;;;;;;12.48;5.97;;;;;;;4.13;100.00;101393.19;4866635;29;20072;-87
2022/02/05 10:08:06;;;;;;;15.07;6.10;;;;;;;4.23;100.00;101392.44;4889788;29;20037;-88
2022/02/05 10:10:40;;;;;;;11.25;5.30;;;;;;;4.32;100.00;101382.13;4870403;29;20477;-88
2022/02/05 10:13:16;;;;;;;13.73;6.47;;;;;;;4.32;100.00;101388.28;4887939;29;20140;-88
2022/02/05 10:15:42;;;;;;;11.85;4.88;;;;;;;4.34;100.00;101382.84;4885165;29;20792;-88
2022/02/05 10:18:23;;;;;;;11.70;5.50;;;;;;;4.36;100.00;101378.28;4851560;29;20056;-88
2022/02/05 10:20:48;;;;;;;12.25;4.90;;;;;;;4.35;100.00;101387.22;4875342;29;20467;-89
2022/02/05 10:23:14;;;;;;;15.43;5.05;;;;;;;4.41;100.00;101386.78;4943420;28;20216;-88
2022/02/05 10:25:39;;;;;;;10.18;4.65;;;;;;;4.40;100.00;101390.38;4958740;28;20038;-88
2022/02/05 10:28:12;;;;;;;13.85;5.32;;;;;;;4.45;100.00;101373.16;5000317;28;20122;-87
2022/02/05 10:30:45;;;;;;;14.38;5.88;;;;;;;4.53;100.00;101375.25;5021378;28;20999;-87
2022/02/05 10:33:18;;;;;;;13.57;5.72;;;;;;;4.52;100.00;101385.06;5013956;28;20041;-89
2022/02/05 10:36:10;;;;;;;12.48;5.75;;;;;;;4.49;100.00;101395.06;5025762;28;20119;-88
2022/02/05 10:44:00;;;;;;;13.77;5.85;;;;;;;4.61;100.00;101380.88;5016868;28;20132;-89
2022/02/05 10:46:38;;;;;;;17.52;6.60;;;;;;;4.84;100.00;101365.91;5005057;28;20136;-90
2022/02/05 10:49:04;;;;;;;11.50;5.03;;;;;;;4.87;100.00;101373.66;4985947;28;20064;-88
2022/02/05 10:51:41;;;;;;;12.27;4.97;;;;;;;4.82;100.00;101388.25;4960874;28;20497;-88
2022/02/05 10:54:14;;;;;;;9.35;4.68;;;;;;;4.83;100.00;101376.63;4964890;28;20046;-89
2022/02/05 10:56:57;;;;;;;14.00;4.63;;;;;;;4.90;100.00;101362.78;4962361;28;20134;-90
2022/02/05 10:59:45;;;;;;;9.95;4.85;;;;;;;4.95;100.00;101357.97;4951979;28;20039;-86
2022/02/05 11:05:15;;;;;;;18.25;4.50;;;;;;;5.09;100.00;101378.25;4886508;29;20104;-89
2022/02/05 11:07:41;;;;;;;14.85;4.43;;;;;;;5.24;100.00;101359.44;4901634;29;20040;-88
2022/02/05 11:10:07;;;;;;;19.13;5.38;;;;;;;5.20;100.00;101361.44;4871309;29;20039;-89
2022/02/05 11:18:30;;;;;;;12.77;4.40;;;;;;;5.20;100.00;101354.31;4892421;29;20040;-88
2022/02/05 11:20:54;;;;;;;8.73;4.03;;;;;;;5.16;100.00;101382.13;4900827;29;20047;-89
2022/02/05 11:23:20;;;;;;;10.27;4.70;;;;;;;5.17;100.00;101367.84;4886996;29;20443;-87
2022/02/05 11:25:48;;;;;;;9.45;3.85;;;;;;;5.22;100.00;101362.19;4873239;29;20056;-89
2022/02/05 11:28:13;;;;;;;13.48;3.97;;;;;;;5.24;100.00;101370.91;4934627;28;20042;-89
2022/02/05 11:30:48;;;;;;;9.52;3.42;;;;;;;5.19;98.84;101373.06;4983781;28;20104;-90
2022/02/05 11:33:28;;;;;;;12.13;4.80;;;;;;;5.25;100.00;101369.09;4959687;28;20038;-88
2022/02/05 11:38:33;;;;;;;;;;;;;;;5.26;98.94;101365.47;4984752;28;20044;-89
2022/02/05 11:41:03;;;;;;;9.27;3.65;;;;;;;5.17;99.56;101354.53;4965962;28;19928;-88
2022/02/05 11:43:29;;;;;;;13.30;4.10;;;;;;;5.24;100.00;101364.75;4979398;28;20054;-91
2022/02/05 11:46:14;;;;;;;11.45;3.97;;;;;;;5.27;98.98;101364.50;4989912;28;20042;-88
2022/02/05 11:48:55;;;;;;;10.95;3.45;;;;;;;5.22;98.36;101358.69;4986182;28;20037;-87
2022/02/05 11:51:31;;;;;;;8.23;3.53;;;;;;;5.18;97.32;101340.28;4974532;28;20049;-88
2022/02/05 11:53:59;;;;;;;6.97;3.28;;;;;;;5.31;100.00;101323.38;4977391;28;20072;-89
2022/02/05 11:56:37;;;;;;;10.63;4.05;;;;;;;5.40;100.00;101341.31;4973457;28;20050;-88
2022/02/05 11:59:02;;;;;;;8.73;3.40;;;;;;;5.40;97.57;101336.81;4999155;28;20047;-90
2022/02/05 12:01:38;;;;;;;9.00;3.63;;;;;;;5.42;97.87;101315.44;5002633;28;20042;-89
2022/02/05 12:04:23;;;;;;;11.73;3.53;;;;;;;5.43;97.46;101336.59;4992332;28;20042;-88
2022/02/05 12:06:55;;;;;;;7.32;2.92;;;;;;;5.44;96.08;101348.13;4993456;28;20052;-88
2022/02/05 12:09:40;;;;;;;11.75;4.40;;;;;;;5.53;97.83;101350.06;5015907;28;20051;-88
2022/02/05 12:12:34;;;;;;;14.23;2.90;;;;;;;5.53;95.21;101333.25;5025335;28;20483;-89
2022/02/05 12:15:08;;;;;;;7.13;2.80;;;;;;;5.53;94.97;101331.44;5033368;28;20044;-88
2022/02/05 12:20:52;;;;;;;9.05;2.75;;;;;;;5.62;96.41;101327.19;5026461;28;20068;-88
2022/02/05 12:25:58;;;;;;;9.27;2.80;;;;;;;5.57;95.08;101340.84;5043027;28;20052;-89
2022/02/05 12:28:34;;;;;;;13.43;3.10;;;;;;;5.54;94.09;101334.94;5008634;28;20055;-89
2022/02/05 12:31:03;;;;;;;12.23;3.13;;;;;;;5.54;95.08;101330.44;5034061;28;20430;-89
2022/02/05 12:33:46;;;;;;;8.10;2.72;;;;;;;5.49;92.82;101323.78;5045673;28;20075;-90
2022/02/05 12:36:13;;;;;;;10.18;2.90;;;;;;;5.51;93.30;101324.53;5027190;28;20099;-89
2022/02/05 12:38:43;;;;;;;10.93;3.00;;;;;;;5.52;93.50;101308.41;5019873;28;20051;-89
2022/02/05 12:41:12;;;;;;;8.95;2.55;;;;;;;5.54;93.10;101310.97;5030706;28;20037;-89
2022/02/05 12:43:56;;;;;;;9.95;3.22;;;;;;;5.59;92.18;101316.78;5003581;28;20069;-89
2022/02/05 12:46:27;;;;;;;10.48;2.60;;;;;;;5.63;90.30;101329.72;5027588;28;20045;-90
2022/02/05 12:48:58;;;;;;;8.48;3.08;;;;;;;5.72;91.28;101298.03;5002276;28;20058;-90
2022/02/05 12:51:24;;;;;;;10.20;3.40;;;;;;;5.81;91.32;101298.16;4980063;28;20050;-91
2022/02/05 12:53:51;;;;;;;10.68;3.45;;;;;;;5.97;92.81;101305.81;4978373;28;20081;-91
2022/02/05 12:56:18;;;;;;;12.25;2.58;;;;;;;6.03;89.18;101305.31;4947767;28;20110;-91
2022/02/05 12:59:02;;;;;;;5.97;2.35;;;;;;;6.06;86.92;101298.91;4947940;28;20055;-90
2022/02/05 13:01:28;;;;;;;8.52;2.85;;;;;;;6.15;88.65;101298.16;4949735;28;20133;-90
2022/02/05 13:04:15;;;;;;;9.35;2.28;;;;;;;6.27;89.23;101305.19;4932966;28;20049;-90
2022/02/05 13:06:41;;;;;;;6.60;2.53;;;;;;;6.21;86.47;101303.00;4924887;29;20123;-90
2022/02/05 13:09:19;;;;;;;9.40;2.63;;;;;;;6.17;85.62;101280.25;4912440;29;20139;-90
2022/02/05 13:11:45;;;;;;;12.32;2.90;;;;;;;6.30;87.62;101286.28;4917079;29;20039;-90
2022/02/05 13:14:11;;;;;;;9.48;2.58;;;;;;;6.32;86.45;101273.66;4908536;29;20514;-91
2022/02/05 13:16:40;;;;;;;9.18;2.72;;;;;;;6.40;87.20;101270.38;4907632;29;20048;-90
2022/02/05 13:19:41;;;;;;;7.53;2.40;;;;;;;6.32;86.14;101267.47;4924075;28;20054;-91
2022/02/05 13:25:15;;;;;;;8.90;2.30;;;;;;;6.22;87.71;101272.72;4926870;29;20092;-90
2022/02/05 13:27:47;;;;;;;6.95;1.95;;;;;;;6.19;85.22;101256.16;4901533;29;20508;-90
2022/02/05 13:36:14;;;;;;;9.10;2.50;;;;;;;6.12;85.26;101260.25;4924613;29;20111;-91
2022/02/05 13:39:05;;;;;;;7.50;2.50;;;;;;;6.16;86.42;101245.69;4893383;29;20048;-89
2022/02/05 13:41:39;;;;;;;7.53;2.60;;;;;;;6.14;84.88;101245.00;4894897;29;20075;-90
2022/02/05 13:44:05;;;;;;;12.02;2.53;;;;;;;6.14;86.39;101245.00;4908132;29;20040;-90
2022/02/05 13:46:32;;;;;;;9.88;2.38;;;;;;;6.13;84.61;101252.16;4910215;29;20044;-90
2022/02/05 13:49:18;;;;;;;8.85;2.72;;;;;;;6.17;84.78;101260.75;4892827;29;20118;-89
2022/02/05 13:51:44;;;;;;;9.07;2.75;;;;;;;6.20;83.58;101232.03;4912425;29;21209;-90
2022/02/05 13:54:10;;;;;;;7.15;2.55;;;;;;;6.22;84.45;101247.91;4910030;29;20138;-89
2022/02/05 13:56:36;;;;;;;8.15;2.60;;;;;;;6.25;84.95;101229.00;4915900;29;20122;-90
2022/02/05 13:59:03;;;;;;;6.13;2.30;;;;;;;6.25;84.09;101250.31;4900559;29;20051;-90
2022/02/05 14:01:31;;;;;;;6.43;1.98;;;;;;;6.18;83.19;101265.09;4926985;29;20103;-90
2022/02/05 14:04:10;;;;;;;9.10;3.13;;;;;;;6.23;87.39;101230.94;4910091;29;20044;-90
2022/02/05 14:06:52;;;;;;;9.15;2.83;;;;;;;6.18;85.08;101259.75;4913550;29;20067;-90
2022/02/05 14:09:22;;;;;;;10.15;2.78;;;;;;;6.16;83.79;101243.03;4928826;28;20034;-90
2022/02/05 14:11:47;;;;;;;9.65;2.97;;;;;;;6.14;83.61;101216.53;5009120;28;20084;-90
2022/02/05 14:14:20;;;;;;;7.15;2.65;;;;;;;6.17;83.37;101215.44;5049353;28;20708;-89
2022/02/05 14:16:46;;;;;;;8.18;2.38;;;;;;;6.13;82.48;101229.97;5016857;28;20032;-89
2022/02/05 14:19:23;;;;;;;5.55;2.45;;;;;;;6.18;84.87;101235.78;5029156;28;20058;-90
2022/02/05 14:21:49;;;;;;;9.60;3.38;;;;;;;6.22;86.18;101223.91;5022748;28;20045;-90
2022/02/05 14:24:20;;;;;;;12.10;4.38;;;;;;;6.25;86.66;101226.31;5027103;28;20473;-91
2022/02/05 14:27:00;;;;;;;9.65;3.58;;;;;;;6.23;85.52;101233.59;4956434;28;20138;-90
2022/02/05 14:29:27;;;;;;;8.43;3.47;;;;;;;6.20;84.71;101225.84;4945720;28;20049;-90
2022/02/05 14:31:57;;;;;;;11.50;3.70;;;;;;;6.19;84.51;101208.19;4988629;28;20504;-90
2022/02/05 14:42:39;;;;;;;8.98;3.58;;;;;;;6.42;85.34;101215.13;4992712;28;20076;-90
2022/02/05 14:45:05;;;;;;;9.90;4.47;;;;;;;6.58;85.79;101206.69;4990700;28;20045;-89
2022/02/05 14:47:31;;;;;;;13.75;3.33;;;;;;;6.58;84.89;101205.84;4994427;28;20038;-90
2022/02/05 14:49:56;;;;;;;8.02;3.83;;;;;;;6.54;85.30;101203.44;4956889;28;20113;-90
2022/02/05 14:52:22;;;;;;;11.50;3.88;;;;;;;6.48;82.84;101203.09;4896552;29;20045;-90
2022/02/05 14:54:48;;;;;;;8.70;3.60;;;;;;;6.46;84.10;101210.38;4877926;29;20039;-91
2022/02/05 14:57:14;;;;;;;9.38;3.45;;;;;;;6.46;84.86;101210.38;4912257;29;20044;-90
2022/02/05 14:59:41;;;;;;;12.35;3.72;;;;;;;6.47;86.27;101214.72;4907386;29;20051;-89
2022/02/05 15:02:08;;;;;;;8.85;4.30;;;;;;;6.42;84.95;101203.63;4903867;28;20108;-90
2022/02/05 15:04:34;;;;;;;10.73;3.97;;;;;;;6.40;86.25;101206.38;4934251;29;20054;-90
2022/02/05 15:06:59;;;;;;;10.02;3.35;;;;;;;6.37;84.59;101200.47;4920764;29;20093;-90
2022/02/05 15:09:25;;;;;;;8.20;3.38;;;;;;;6.30;84.56;101202.78;4924651;29;20075;-89
2022/02/05 15:11:50;;;;;;;9.15;3.95;;;;;;;6.29;84.90;101206.44;4944166;28;20051;-90
2022/02/05 15:14:17;;;;;;;6.47;3.00;;;;;;;6.20;81.54;101184.06;4937929;28;20043;-90
2022/02/05 15:16:43;;;;;;;9.65;3.30;;;;;;;6.23;83.66;101204.28;4931044;28;20051;-89
2022/02/05 15:19:09;;;;;;;8.30;3.50;;;;;;;6.23;84.63;101199.78;4906319;29;20041;-90
2022/02/05 15:21:37;;;;;;;6.50;3.40;;;;;;;6.20;83.25;101188.53;4860902;29;20041;-89
2022/02/05 15:24:06;;;;;;;9.38;3.90;;;;;;;6.21;85.25;101185.72;4869639;29;20056;-89
2022/02/05 15:26:33;;;;;;;10.57;3.92;;;;;;;6.20;85.30;101185.88;4837901;29;20467;-90
2022/02/05 15:29:00;;;;;;;9.40;3.60;;;;;;;6.16;84.28;101176.41;4770906;29;423255;-89
2022/02/05 15:31:26;;;;;;;12.15;4.25;;;;;;;6.18;86.47;101190.47;4667305;29;3015443;-89
2022/02/05 15:33:55;;;;;;;10.55;3.30;;;;;;;6.15;85.71;101177.41;4566458;29;4335207;-90
2022/02/05 15:36:28;;;;;;;11.07;3.13;;;;;;;6.14;85.23;101171.22;4721787;29;561232;-90
2022/02/05 15:44:07;;;;;;;7.53;3.40;;;;;;;6.11;85.78;101171.50;4788376;29;20348;-89
2022/02/05 15:46:33;;;;;;;7.82;2.72;;;;;;;6.09;85.42;101166.28;4807246;29;20094;-90
2022/02/05 15:48:58;;;;;;;9.18;2.83;;;;;;;6.08;84.97;101169.91;4799793;29;20074;-91
2022/02/05 15:51:29;;;;;;;8.35;2.50;;;;;;;6.07;83.98;101162.91;4797868;29;20077;-89
2022/02/05 15:53:59;;;;;;;11.98;3.05;;;;;;;6.04;83.28;101163.16;4790685;29;20530;-90
2022/02/05 15:56:33;;;;;;;8.52;2.85;;;;;;;6.08;86.08;101153.09;4813390;29;20122;-90
2022/02/05 15:59:03;;;;;;;9.07;3.40;;;;;;;6.04;84.61;101156.97;4781113;29;20650;-89
2022/02/05 16:01:28;;;;;;;6.28;2.72;;;;;;;6.01;84.22;101147.44;4814948;29;20746;-89
2022/02/05 16:04:03;;;;;;;7.46;2.48;;;;;;;6.02;83.96;101135.78;4699452;29;8024359;-90
2022/02/05 16:06:29;;;;;;;9.27;2.85;;;;;;;6.05;85.01;101132.03;4426365;29;8802726;-90
2022/02/05 16:08:55;;;;;;;7.00;2.40;;;;;;;6.03;85.54;101118.81;4644704;29;4363825;-90
2022/02/05 16:11:21;;;;;;;8.18;2.70;;;;;;;6.01;85.08;101126.13;4718793;29;2017532;-90
2022/02/05 16:13:47;;;;;;;9.48;2.80;;;;;;;6.01;85.29;101115.47;4797594;29;764036;-90
2022/02/05 16:16:13;;;;;;;6.55;2.75;;;;;;;5.98;85.09;101120.16;4747522;29;1812415;-91
2022/02/05 16:18:40;;;;;;;7.63;3.35;;;;;;;6.00;86.84;101113.75;4805034;29;449369;-90
2022/02/05 16:21:08;;;;;;;10.02;2.67;;;;;;;5.96;85.18;101096.34;4437675;29;7403681;-91
2022/02/05 16:23:34;;;;;;;8.45;3.15;;;;;;;5.96;86.36;101115.00;4760133;29;1586123;-90
2022/02/05 16:26:00;;;;;;;8.50;3.20;;;;;;;5.97;87.42;101103.34;4821147;29;20041;-91
2022/02/05 16:28:26;;;;;;;10.77;2.97;;;;;;;5.95;86.32;101115.94;4663029;29;3194505;-90
2022/02/05 16:31:01;;;;;;;10.02;3.45;;;;;;;5.96;87.39;101106.16;4790611;29;826158;-90
2022/02/05 16:34:35;;;;;;;8.77;2.97;;;;;;;5.93;87.14;101112.56;4784552;27;6510638;-91
2022/02/05 16:37:03;;;;;;;8.05;3.50;;;;;;;5.94;86.44;101103.59;4923077;28;20048;-89
2022/02/05 16:39:31;;;;;;;9.10;3.63;;;;;;;5.96;85.74;101100.81;4888918;29;20095;-88
2022/02/05 16:41:56;;;;;;;10.54;3.70;;;;;;;5.96;85.84;101080.34;4707509;29;4581871;-89
2022/02/05 16:44:23;;;;;;;6.45;3.33;;;;;;;5.98;86.08;101094.38;4864612;29;670059;-88
2022/02/05 16:46:56;;;;;;;6.20;3.42;;;;;;;6.02;87.86;101095.00;4781905;29;1795261;-88
2022/02/05 16:49:24;;;;;;;7.88;3.55;;;;;;;5.97;87.30;101091.84;4673833;29;3832945;-88
2022/02/05 17:03:59;;;;;;;9.98;3.67;;;;;;;5.78;89.17;101077.38;4482374;27;15189616;-89
2022/02/05 17:06:31;;;;;;;12.45;5.03;;;;;;;5.84;89.67;101079.53;4917024;28;20492;-88
2022/02/05 17:09:05;;;;;;;8.77;3.67;;;;;;;5.89;88.27;101079.13;4870119;28;20072;-88
